createdAt,value
2023-03-21T00:01:27.055Z,100239.38
2023-03-21T00:04:50.914Z,100235.00
2023-03-21T00:08:04.601Z,100227.91
2023-03-21T00:11:17.320Z,100231.47
2023-03-21T00:14:31.018Z,100224.38
2023-03-21T00:17:44.903Z,100220.50
2023-03-21T00:24:35.355Z,100207.72
2023-03-21T00:28:05.153Z,100209.66
2023-03-21T00:31:21.321Z,100217.28
2023-03-21T00:34:43.627Z,100209.50
2023-03-21T00:38:02.497Z,100202.34
2023-03-21T00:41:25.847Z,100200.44
2023-03-21T00:44:44.871Z,100198.81
2023-03-21T00:47:57.547Z,100199.78
2023-03-21T00:51:15.620Z,100197.19
2023-03-21T00:54:27.959Z,100190.09
2023-03-21T00:57:42.268Z,100193.31
2023-03-21T01:00:54.857Z,100190.72
2023-03-21T01:04:13.262Z,100192.00
2023-03-21T01:07:25.673Z,100186.50
2023-03-21T01:10:39.965Z,100183.94
2023-03-21T01:13:59.771Z,100183.28
2023-03-21T01:17:17.587Z,100182.81
2023-03-21T01:20:30.245Z,100183.47
2023-03-21T01:23:42.961Z,100174.88
2023-03-21T01:26:55.329Z,100171.47
2023-03-21T01:30:19.129Z,100166.47
2023-03-21T01:33:33.142Z,100167.47
2023-03-21T01:36:45.789Z,100172.94
2023-03-21T01:39:58.548Z,100170.03
2023-03-21T01:43:32.201Z,100166.16
2023-03-21T01:47:11.488Z,100175.53
2023-03-21T01:50:26.314Z,100169.56
2023-03-21T01:53:39.841Z,100169.81
2023-03-21T01:56:54.194Z,100171.88
2023-03-21T02:00:12.561Z,100171.34
2023-03-21T02:03:50.086Z,100162.16
2023-03-21T02:07:18.086Z,100163.81
2023-03-21T02:10:31.640Z,100168.31
2023-03-21T02:13:44.788Z,100176.25
2023-03-21T02:17:27.086Z,100172.59
2023-03-21T02:21:01.923Z,100170.41
2023-03-21T02:24:36.994Z,100171.41
2023-03-21T02:27:58.602Z,100165.34
2023-03-21T02:31:39.093Z,100174.12
2023-03-21T02:35:10.598Z,100172.06
2023-03-21T02:38:54.771Z,100175.72
2023-03-21T02:42:27.626Z,100167.75
2023-03-21T02:45:49.862Z,100161.78
2023-03-21T02:49:15.487Z,100171.47
2023-03-21T02:56:13.036Z,100164.09
2023-03-21T02:59:27.175Z,100172.44
2023-03-21T03:02:41.662Z,100170.41
2023-03-21T03:05:57.036Z,100169.75
2023-03-21T03:09:19.725Z,100162.47
2023-03-21T03:12:41.951Z,100165.25
2023-03-21T03:16:19.886Z,100168.81
2023-03-21T03:19:44.697Z,100166.88
2023-03-21T03:23:15.531Z,100166.94
2023-03-21T03:26:44.838Z,100165.19
2023-03-21T03:29:59.366Z,100167.06
2023-03-21T03:33:12.450Z,100161.84
2023-03-21T03:36:32.520Z,100163.47
2023-03-21T03:39:54.108Z,100159.06
2023-03-21T03:43:10.388Z,100164.03
2023-03-21T03:46:38.913Z,100167.78
2023-03-21T03:50:01.034Z,100164.47
2023-03-21T03:53:18.844Z,100164.88
2023-03-21T03:56:31.826Z,100173.41
2023-03-21T03:59:45.289Z,100167.59
2023-03-21T04:02:59.848Z,100166.34
2023-03-21T04:06:13.663Z,100169.06
2023-03-21T04:09:41.200Z,100175.47
2023-03-21T04:12:56.337Z,100175.00
2023-03-21T04:16:10.068Z,100161.03
2023-03-21T04:19:22.899Z,100160.75
2023-03-21T04:22:35.821Z,100174.94
2023-03-21T04:25:56.378Z,100168.12
2023-03-21T04:29:10.800Z,100178.16
2023-03-21T04:32:26.494Z,100181.47
2023-03-21T04:35:39.778Z,100184.16
2023-03-21T04:38:52.756Z,100187.50
2023-03-21T04:42:05.322Z,100180.31
2023-03-21T04:45:17.995Z,100183.28
2023-03-21T04:48:30.566Z,100176.94
2023-03-21T04:51:45.450Z,100175.66
2023-03-21T04:54:57.999Z,100177.28
2023-03-21T04:58:10.621Z,100172.69
2023-03-21T05:01:23.048Z,100173.28
2023-03-21T05:04:35.689Z,100175.69
2023-03-21T05:07:48.037Z,100173.59
2023-03-21T05:11:00.885Z,100172.78
2023-03-21T05:14:15.616Z,100175.19
2023-03-21T05:17:28.610Z,100178.06
2023-03-21T05:20:44.776Z,100175.28
2023-03-21T05:23:58.472Z,100169.25
2023-03-21T05:27:14.061Z,100179.03
2023-03-21T05:30:26.920Z,100173.84
2023-03-21T05:33:45.446Z,100181.00
2023-03-21T05:37:00.980Z,100185.34
2023-03-21T05:40:14.807Z,100186.78
2023-03-21T05:43:27.957Z,100187.38
2023-03-21T05:46:40.403Z,100190.19
2023-03-21T05:49:53.492Z,100183.00
2023-03-21T05:53:07.132Z,100194.13
2023-03-21T05:56:20.408Z,100201.44
2023-03-21T05:59:33.177Z,100195.44
2023-03-21T06:02:46.892Z,100200.00
2023-03-21T06:06:01.236Z,100206.16
2023-03-21T06:09:14.248Z,100213.13
2023-03-21T06:12:27.822Z,100207.88
2023-03-21T06:15:40.598Z,100213.00
2023-03-21T06:18:55.338Z,100214.78
2023-03-21T06:22:08.423Z,100215.00
2023-03-21T06:25:21.937Z,100225.28
2023-03-21T06:28:34.500Z,100222.50
2023-03-21T06:31:47.786Z,100218.81
2023-03-21T06:35:00.883Z,100224.38
2023-03-21T06:38:14.572Z,100219.63
2023-03-21T06:41:27.505Z,100224.84
2023-03-21T06:44:41.077Z,100223.63
2023-03-21T06:47:53.642Z,100223.84
2023-03-21T06:51:09.126Z,100223.63
2023-03-21T06:54:23.084Z,100229.25
2023-03-21T06:57:36.172Z,100227.03
2023-03-21T07:00:49.198Z,100231.66
2023-03-21T07:04:02.155Z,100234.06
2023-03-21T07:07:15.797Z,100228.28
2023-03-21T07:10:28.700Z,100227.72
2023-03-21T07:13:41.522Z,100224.16
2023-03-21T07:16:54.287Z,100225.75
2023-03-21T07:20:08.360Z,100226.41
2023-03-21T07:23:22.223Z,100235.00
2023-03-21T07:26:34.641Z,100227.75
2023-03-21T07:29:50.407Z,100233.53
2023-03-21T07:33:03.031Z,100233.69
2023-03-21T07:36:16.006Z,100234.66
2023-03-21T07:39:29.555Z,100232.34
2023-03-21T07:42:42.483Z,100231.69
2023-03-21T07:45:58.459Z,100235.00
2023-03-21T07:49:12.142Z,100231.34
2023-03-21T07:52:24.748Z,100240.94
2023-03-21T07:55:37.660Z,100237.37
2023-03-21T07:58:50.206Z,100233.78
2023-03-21T08:02:03.160Z,100235.75
2023-03-21T08:05:16.249Z,100236.97
2023-03-21T08:08:28.839Z,100234.19
2023-03-21T08:11:41.457Z,100241.75
2023-03-21T08:14:53.929Z,100236.53
2023-03-21T08:18:06.666Z,100240.37
2023-03-21T08:21:19.231Z,100236.25
2023-03-21T08:24:31.972Z,100230.72
2023-03-21T08:27:44.812Z,100237.47
2023-03-21T08:30:57.589Z,100232.53
2023-03-21T08:34:10.035Z,100239.31
2023-03-21T08:37:23.070Z,100237.81
2023-03-21T08:40:35.924Z,100236.56
2023-03-21T08:43:48.973Z,100234.59
2023-03-21T08:47:01.543Z,100230.63
2023-03-21T08:50:17.496Z,100242.03
2023-03-21T08:53:29.974Z,100235.50
2023-03-21T08:56:42.683Z,100241.66
2023-03-21T08:59:55.296Z,100240.63
2023-03-21T09:03:09.439Z,100236.31
2023-03-21T09:06:24.798Z,100236.94
2023-03-21T09:09:37.501Z,100232.00
2023-03-21T09:12:51.012Z,100226.66
2023-03-21T09:16:05.265Z,100238.53
2023-03-21T09:19:18.042Z,100226.59
2023-03-21T09:22:31.036Z,100237.94
2023-03-21T09:25:46.085Z,100224.81
2023-03-21T09:29:01.093Z,100223.28
2023-03-21T09:32:13.517Z,100227.66
2023-03-21T09:35:27.135Z,100229.50
2023-03-21T09:38:45.778Z,100224.09
2023-03-21T09:42:04.778Z,100226.97
2023-03-21T09:45:17.335Z,100210.97
2023-03-21T09:48:54.359Z,100213.56
2023-03-21T09:52:18.859Z,100220.31
2023-03-21T09:55:35.093Z,100206.37
2023-03-21T09:58:53.292Z,100212.69
2023-03-21T10:02:33.816Z,100206.19
2023-03-21T10:05:46.907Z,100199.19
2023-03-21T10:09:07.476Z,100198.41
2023-03-21T10:12:24.754Z,100197.16
2023-03-21T10:15:37.430Z,100195.84
2023-03-21T10:18:50.436Z,100194.91
2023-03-21T10:22:03.982Z,100197.78
2023-03-21T10:25:37.361Z,100193.09
2023-03-21T10:28:53.069Z,100189.56
2023-03-21T10:32:09.201Z,100186.75
2023-03-21T10:35:21.729Z,100190.44
2023-03-21T10:38:34.465Z,100189.44
2023-03-21T10:41:46.842Z,100183.22
2023-03-21T10:44:59.520Z,100182.38
2023-03-21T10:48:14.771Z,100180.00
2023-03-21T10:51:35.673Z,100179.72
2023-03-21T10:54:48.533Z,100179.47
2023-03-21T10:58:10.925Z,100175.69
2023-03-21T11:01:36.637Z,100184.97
2023-03-21T11:04:55.347Z,100178.84
2023-03-21T11:08:17.105Z,100169.06
2023-03-21T11:11:38.965Z,100165.13
2023-03-21T11:14:51.358Z,100153.16
2023-03-21T11:18:15.494Z,100164.94
2023-03-21T11:21:29.723Z,100153.53
2023-03-21T11:24:43.445Z,100150.16
2023-03-21T11:27:55.946Z,100149.84
2023-03-21T11:31:15.669Z,100153.38
2023-03-21T11:34:33.553Z,100130.25
2023-03-21T11:37:48.987Z,100150.69
2023-03-21T11:41:01.665Z,100136.56
2023-03-21T11:44:34.480Z,100126.84
2023-03-21T11:47:47.862Z,100150.97
2023-03-21T11:51:11.442Z,100129.28
2023-03-21T11:54:36.052Z,100128.69
2023-03-21T11:58:13.841Z,100115.34
2023-03-21T12:02:01.299Z,100121.56
2023-03-21T12:05:23.118Z,100122.16
2023-03-21T12:08:42.529Z,100111.81
2023-03-21T12:12:37.924Z,100108.34
2023-03-21T12:16:05.729Z,100108.47
2023-03-21T12:19:38.384Z,100111.19
2023-03-21T12:23:23.174Z,100102.63
2023-03-21T12:26:46.912Z,100097.16
2023-03-21T12:30:17.510Z,100094.81
2023-03-21T12:33:36.942Z,100098.84
2023-03-21T12:37:36.885Z,100091.97
2023-03-21T12:41:14.443Z,100088.06
2023-03-21T12:44:29.116Z,100085.88
2023-03-21T12:47:43.018Z,100074.56
2023-03-21T12:50:56.295Z,100077.47
2023-03-21T12:54:26.817Z,100078.38
2023-03-21T12:57:56.491Z,100062.62
2023-03-21T13:01:10.681Z,100066.59
2023-03-21T13:04:43.856Z,100075.50
2023-03-21T13:08:03.604Z,100063.09
2023-03-21T13:11:21.279Z,100069.28
2023-03-21T13:14:36.841Z,100058.81
2023-03-21T13:17:54.518Z,100054.34
2023-03-21T13:21:24.457Z,100049.12
2023-03-21T13:24:48.623Z,100047.19
2023-03-21T13:28:02.875Z,100052.84
2023-03-21T13:31:22.613Z,100048.94
2023-03-21T13:34:38.643Z,100053.72
2023-03-21T13:37:53.773Z,100037.37
2023-03-21T13:41:18.090Z,100040.47
2023-03-21T13:44:44.111Z,100049.84
2023-03-21T13:47:58.648Z,100045.34
2023-03-21T13:51:11.491Z,100058.50
2023-03-21T13:54:30.727Z,100038.66
2023-03-21T13:57:43.029Z,100037.94
2023-03-21T14:01:16.165Z,100046.03
2023-03-21T14:04:42.404Z,100033.81
2023-03-21T14:08:12.647Z,100042.69
2023-03-21T14:11:27.791Z,100047.41
2023-03-21T14:14:42.217Z,100033.78
2023-03-21T14:17:56.102Z,100029.00
2023-03-21T14:21:24.297Z,100031.97
2023-03-21T14:24:37.497Z,100030.78
2023-03-21T14:27:52.705Z,100022.88
2023-03-21T14:31:05.717Z,100015.66
2023-03-21T14:34:18.338Z,100009.87
2023-03-21T14:37:30.858Z,100005.56
2023-03-21T14:40:50.072Z,100006.09
2023-03-21T14:44:27.967Z,99993.69
2023-03-21T14:47:40.406Z,100000.53
2023-03-21T14:50:54.160Z,99997.56
2023-03-21T14:54:06.578Z,99994.59
2023-03-21T14:57:25.092Z,99988.59
2023-03-21T15:00:37.691Z,99989.09
2023-03-21T15:03:50.718Z,99992.66
2023-03-21T15:07:05.209Z,99992.19
2023-03-21T15:10:18.149Z,99998.50
2023-03-21T15:13:49.682Z,99995.72
2023-03-21T15:17:04.215Z,99990.59
2023-03-21T15:20:16.944Z,99983.63
2023-03-21T15:23:35.856Z,99972.22
2023-03-21T15:26:48.735Z,99974.75
2023-03-21T15:30:01.347Z,99974.47
2023-03-21T15:33:14.740Z,99979.22
2023-03-21T15:36:29.345Z,99968.66
2023-03-21T15:39:41.774Z,99969.87
2023-03-21T15:43:08.222Z,99962.50
2023-03-21T15:46:48.284Z,99962.47
2023-03-21T15:50:02.564Z,99969.63
2023-03-21T15:53:17.215Z,99955.19
2023-03-21T15:56:34.775Z,99971.31
2023-03-21T15:59:47.950Z,99969.69
2023-03-21T16:03:03.043Z,99961.94
2023-03-21T16:06:20.759Z,99969.38
2023-03-21T16:09:44.119Z,99964.75
2023-03-21T16:12:56.847Z,99969.78
2023-03-21T16:16:19.911Z,99969.91
2023-03-21T16:19:32.530Z,99964.91
2023-03-21T16:22:44.842Z,99976.47
2023-03-21T16:25:58.976Z,99986.16
2023-03-21T16:29:12.706Z,99984.69
2023-03-21T16:32:25.345Z,99985.06
2023-03-21T16:35:37.731Z,99984.84
2023-03-21T16:38:52.646Z,99990.94
2023-03-21T16:42:05.065Z,99988.09
2023-03-21T16:45:17.867Z,99990.06
2023-03-21T16:48:30.318Z,99992.16
2023-03-21T16:51:43.021Z,99991.84
2023-03-21T16:54:55.359Z,99994.59
2023-03-21T16:58:08.037Z,99999.84
2023-03-21T17:01:21.179Z,100002.34
2023-03-21T17:04:33.812Z,100010.56
2023-03-21T17:07:47.149Z,100007.88
2023-03-21T17:10:59.993Z,100013.63
2023-03-21T17:14:12.764Z,100008.56
2023-03-21T17:17:25.412Z,100015.25
2023-03-21T17:20:40.211Z,100019.22
2023-03-21T17:23:53.223Z,100019.34
2023-03-21T17:27:07.550Z,100022.66
2023-03-21T17:30:33.982Z,100022.44
2023-03-21T17:33:46.885Z,100028.44
2023-03-21T17:36:59.536Z,100032.16
2023-03-21T17:40:12.388Z,100034.81
2023-03-21T17:43:25.060Z,100031.66
2023-03-21T17:46:37.571Z,100037.00
2023-03-21T17:49:50.232Z,100032.28
2023-03-21T17:53:04.020Z,100043.19
2023-03-21T17:56:27.241Z,100037.16
2023-03-21T17:59:39.604Z,100041.59
2023-03-21T18:02:52.352Z,100048.47
2023-03-21T18:06:05.732Z,100053.31
2023-03-21T18:09:21.555Z,100059.81
2023-03-21T18:12:34.422Z,100056.59
2023-03-21T18:15:48.339Z,100064.69
2023-03-21T18:19:01.085Z,100063.94
2023-03-21T18:22:13.673Z,100063.41
2023-03-21T18:25:26.348Z,100062.66
2023-03-21T18:28:39.748Z,100066.25
2023-03-21T18:32:05.427Z,100073.12
2023-03-21T18:35:19.797Z,100070.97
2023-03-21T18:38:32.592Z,100072.34
2023-03-21T18:41:46.276Z,100076.97
2023-03-21T18:44:59.048Z,100074.59
2023-03-21T18:48:13.624Z,100067.78
2023-03-21T18:51:26.453Z,100074.59
2023-03-21T18:54:39.109Z,100075.63
2023-03-21T18:57:53.995Z,100078.28
2023-03-21T19:01:06.820Z,100079.09
2023-03-21T19:04:28.723Z,100081.91
2023-03-21T19:07:42.223Z,100080.28
2023-03-21T19:10:59.579Z,100084.53
2023-03-21T19:14:14.422Z,100089.53
2023-03-21T19:18:21.845Z,100093.56
2023-03-21T19:21:01.327Z,100097.00
2023-03-21T19:24:27.164Z,100093.16
2023-03-21T19:27:41.280Z,100092.38
2023-03-21T19:30:55.540Z,100089.75
2023-03-21T19:34:08.054Z,100091.75
2023-03-21T19:37:20.858Z,100101.59
2023-03-21T19:40:33.318Z,100091.56
2023-03-21T19:43:54.148Z,100100.56
2023-03-21T19:47:07.700Z,100096.75
2023-03-21T19:50:57.968Z,100100.38
2023-03-21T19:53:52.690Z,100099.13
2023-03-21T19:57:05.573Z,100106.75
2023-03-21T20:00:18.799Z,100101.50
2023-03-21T20:03:31.732Z,100102.69
2023-03-21T20:06:44.176Z,100111.91
2023-03-21T20:09:57.476Z,100107.47
2023-03-21T20:13:09.952Z,100117.84
2023-03-21T20:16:23.156Z,100112.16
2023-03-21T20:19:35.579Z,100111.34
2023-03-21T20:26:22.123Z,100117.22
2023-03-21T20:33:07.060Z,100130.47
2023-03-21T20:36:38.850Z,100131.22
2023-03-21T20:39:52.708Z,100132.13
2023-03-21T20:43:33.510Z,100124.53
2023-03-21T20:46:38.035Z,100135.31
2023-03-21T20:49:50.870Z,100121.69
2023-03-21T20:53:07.259Z,100128.44
2023-03-21T20:56:20.755Z,100147.75
2023-03-21T20:59:33.627Z,100145.81
2023-03-21T21:02:47.604Z,100140.94
2023-03-21T21:06:00.033Z,100157.16
2023-03-21T21:09:12.664Z,100155.56
2023-03-21T21:12:28.643Z,100148.19
2023-03-21T21:15:42.241Z,100151.81
2023-03-21T21:18:54.635Z,100154.41
2023-03-21T21:22:07.295Z,100167.44
2023-03-21T21:25:19.639Z,100158.63
2023-03-21T21:28:38.508Z,100164.84
2023-03-21T21:31:51.082Z,100158.03
2023-03-21T21:35:04.083Z,100167.09
2023-03-21T21:38:19.922Z,100162.34
2023-03-21T21:41:32.533Z,100169.91
2023-03-21T21:44:45.182Z,100168.16
2023-03-21T21:47:58.058Z,100177.78
2023-03-21T21:51:10.456Z,100184.41
2023-03-21T21:54:23.184Z,100185.38
2023-03-21T21:57:35.959Z,100186.56
2023-03-21T22:00:50.127Z,100190.16
2023-03-21T22:04:06.226Z,100186.53
2023-03-21T22:07:19.592Z,100190.06
2023-03-21T22:10:32.589Z,100185.28
2023-03-21T22:13:45.453Z,100189.97
2023-03-21T22:16:59.875Z,100191.34
2023-03-21T22:20:14.495Z,100189.50
2023-03-21T22:23:28.023Z,100182.63
2023-03-21T22:26:40.446Z,100184.75
2023-03-21T22:29:53.194Z,100188.12
2023-03-21T22:33:09.745Z,100194.03
2023-03-21T22:36:22.803Z,100192.34
2023-03-21T22:39:35.141Z,100183.06
2023-03-21T22:42:47.731Z,100185.03
2023-03-21T22:46:01.966Z,100190.25
2023-03-21T22:49:14.873Z,100186.16
2023-03-21T22:52:27.350Z,100187.66
2023-03-21T22:55:40.069Z,100183.19
2023-03-21T22:58:52.568Z,100192.13
2023-03-21T23:02:05.191Z,100191.22
2023-03-21T23:05:17.610Z,100189.03
2023-03-21T23:08:30.561Z,100195.84
2023-03-21T23:11:45.217Z,100191.19
2023-03-21T23:14:57.872Z,100189.53
2023-03-21T23:18:10.177Z,100198.47
2023-03-21T23:21:23.817Z,100199.81
2023-03-21T23:24:36.163Z,100196.91
2023-03-21T23:27:48.783Z,100191.06
2023-03-21T23:31:07.027Z,100195.91
2023-03-21T23:34:19.694Z,100194.66
2023-03-21T23:37:32.211Z,100193.75
2023-03-21T23:40:44.845Z,100190.28
2023-03-21T23:43:57.222Z,100199.69
2023-03-21T23:47:09.874Z,100200.47
2023-03-21T23:50:22.202Z,100192.87
2023-03-21T23:53:34.810Z,100195.72
2023-03-21T23:56:47.129Z,100190.25
2023-03-21T23:59:59.854Z,100189.44
